KMSS/MSS METAR and TAF weather

Enter ICAO airport designator
Station Type Date Time Source
KMSS METAR 2020/08/15 16:53 UTC NOAA

KMSS 151653Z AUTO 07005KT 10SM CLR 26/17 A3006 RMK AO2 SLP179 T02560172


Station Type Date Time Source
KMSS Decoded METAR 2020/08/15 16:53 UTC NOAA

MASSENA INTERNATIONAL -RICHARDS FLD, NY, United States (KMSS) 44-56N 074-51W 66M
Aug 15, 2020 - 12:53 PM EDT / 2020.08.15 1653 UTC
Wind: from the ENE (070 degrees) at 6 MPH (5 KT):0
Visibility: 10 mile(s):0
Sky conditions: clear
Temperature: 78.1 F (25.6 C)
Dew Point: 63.0 F (17.2 C)
Relative Humidity: 59%
Pressure (altimeter): 30.06 in. Hg (1017 hPa)
ob: KMSS 151653Z AUTO 07005KT 10SM CLR 26/17 A3006 RMK AO2 SLP179 T02560172
cycle: 17

Station Type Date Time Source
KMSS TAF 2020/08/15 12:30 UTC NOAA

TAF KMSS 151127Z 1512/1612 00000KT P6SM SCT070
FM151400 06005KT P6SM FEW200
FM160000 VRB04KT P6SM FEW180

Example: see airport list